Time;durP1;ratioP1;P1;durP2;ratioP2;P2;SDS_P1;SDS_P2;PMS_P1;PMS_P2;Temp;Humidity;BMP_temperature;BMP_pressure;BME280_temperature;BME280_humidity;BME280_pressure;Samples;Min_cycle;Max_cycle;Signal;HPM_P1;HPM_P2
2021/01/10 00:00:36;;;;;;;;;;;;;;;22.36;29.50;102504.66;3092416;28;115615;-60
2021/01/10 00:02:08;;;;;;;;;;;;;;;22.38;29.50;102498.78;3094784;28;115186;-59
2021/01/10 00:03:41;;;;;;;;;;;;;;;22.39;29.81;102498.50;3093873;28;117452;-61
2021/01/10 00:05:16;;;;;;;;;;;;;;;22.40;30.09;102499.31;3094597;28;117802;-60
2021/01/10 00:06:47;;;;;;;;;;;;;;;22.40;29.97;102500.16;3087263;28;117577;-60
2021/01/10 00:08:20;;;;;;;;;;;;;;;22.39;29.84;102498.50;3090209;28;115920;-60
2021/01/10 00:09:51;;;;;;;;;;;;;;;22.40;29.94;102499.31;3089478;28;115786;-61
2021/01/10 00:11:23;;;;;;;;;;;;;;;22.40;29.97;102490.88;3088027;28;114945;-59
2021/01/10 00:12:57;;;;;;;;;;;;;;;22.40;29.86;102490.88;3094051;28;116014;-59
2021/01/10 00:14:29;;;;;;;;;;;;;;;22.40;29.84;102486.06;3091752;28;115818;-60
2021/01/10 00:16:00;;;;;;;;;;;;;;;22.39;29.87;102480.75;3093178;28;116457;-59
2021/01/10 00:17:31;;;;;;;;;;;;;;;22.37;30.02;102481.03;3092873;28;114527;-68
2021/01/10 00:19:03;;;;;;;;;;;;;;;22.37;29.96;102481.03;3093291;28;115970;-68
2021/01/10 00:20:35;;;;;;;;;;;;;;;22.36;30.07;102482.13;3085280;28;114464;-68
2021/01/10 00:22:10;;;;;;;;;;;;;;;22.37;30.38;102491.44;3090983;28;114268;-67
2021/01/10 00:23:42;;;;;;;;;;;;;;;22.36;30.24;102489.75;3105762;28;114614;-67
2021/01/10 00:25:13;;;;;;;;;;;;;;;22.36;30.20;102490.59;3097088;28;115330;-66
2021/01/10 00:26:45;;;;;;;;;;;;;;;22.36;30.12;102482.13;3096561;28;114620;-67
2021/01/10 00:28:16;;;;;;;;;;;;;;;22.37;30.16;102483.00;3095644;28;114401;-66
2021/01/10 00:29:48;;;;;;;;;;;;;;;22.39;30.56;102484.41;3092776;28;113994;-67
2021/01/10 00:31:25;;;;;;;;;;;;;;;22.41;30.69;102484.97;3092914;28;113972;-67
2021/01/10 00:32:57;;;;;;;;;;;;;;;22.42;30.58;102480.16;3094669;28;113906;-68
2021/01/10 00:34:28;;;;;;;;;;;;;;;22.43;30.08;102481.88;3097705;27;113838;-67
2021/01/10 00:35:59;;;;;;;;;;;;;;;22.43;30.08;102479.06;3093050;28;114319;-68
2021/01/10 00:37:31;;;;;;;;;;;;;;;22.44;30.43;102475.09;3096054;28;114019;-65
2021/01/10 00:39:05;;;;;;;;;;;;;;;22.45;30.21;102473.97;3089070;28;115357;-68
2021/01/10 00:40:36;;;;;;;;;;;;;;;22.45;30.28;102469.16;3089789;28;117034;-74
2021/01/10 00:42:12;;;;;;;;;;;;;;;22.45;30.39;102473.97;3087124;28;114192;-74
2021/01/10 00:43:43;;;;;;;;;;;;;;;22.44;30.24;102475.94;3094027;28;117396;-73
2021/01/10 00:45:17;;;;;;;;;;;;;;;22.44;30.09;102472.28;3090304;28;114846;-73
2021/01/10 00:46:50;;;;;;;;;;;;;;;22.43;30.08;102479.06;3098303;28;114414;-71
2021/01/10 00:48:22;;;;;;;;;;;;;;;22.42;30.30;102472.56;3094421;28;114129;-70
2021/01/10 00:49:53;;;;;;;;;;;;;;;22.41;30.24;102473.69;3096427;28;114260;-71
2021/01/10 00:51:24;;;;;;;;;;;;;;;22.41;30.34;102473.69;3091486;28;116699;-71
2021/01/10 00:52:55;;;;;;;;;;;;;;;22.41;30.34;102479.31;3092327;28;114594;-71
2021/01/10 00:54:27;;;;;;;;;;;;;;;22.40;30.53;102485.22;3096875;28;114723;-69
2021/01/10 00:56:03;;;;;;;;;;;;;;;22.39;30.32;102487.22;3092293;28;115068;-68
2021/01/10 00:57:34;;;;;;;;;;;;;;;22.38;30.71;102491.16;3094842;28;115345;-69
2021/01/10 00:59:07;;;;;;;;;;;;;;;22.37;30.83;102485.81;3096680;28;115057;-69
2021/01/10 01:00:39;;;;;;;;;;;;;;;22.37;30.57;102485.81;3094139;28;114768;-69
2021/01/10 01:02:14;;;;;;;;;;;;;;;22.36;30.62;102482.13;3090465;28;114432;-70
2021/01/10 01:03:47;;;;;;;;;;;;;;;22.37;30.87;102483.00;3094749;28;115113;-70
2021/01/10 01:05:18;;;;;;;;;;;;;;;22.38;30.84;102476.22;3089434;28;115754;-70
2021/01/10 01:06:50;;;;;;;;;;;;;;;22.37;30.78;102475.38;3093053;28;115124;-70
2021/01/10 01:08:21;;;;;;;;;;;;;;;22.38;31.17;102476.22;3091611;28;115467;-70
2021/01/10 01:09:52;;;;;;;;;;;;;;;22.38;30.71;102477.09;3093720;28;115840;-69
2021/01/10 01:11:30;;;;;;;;;;;;;;;22.38;30.77;102477.09;3092942;28;116085;-69
2021/01/10 01:13:01;;;;;;;;;;;;;;;22.38;31.09;102474.28;3092860;28;116106;-66
2021/01/10 01:14:32;;;;;;;;;;;;;;;22.39;30.99;102478.78;3091354;28;115902;-66
2021/01/10 01:16:06;;;;;;;;;;;;;;;22.36;31.24;102468.06;3095575;28;115204;-66
2021/01/10 01:17:37;;;;;;;;;;;;;;;22.34;31.04;102473.16;3091827;28;116124;-67
2021/01/10 01:19:09;;;;;;;;;;;;;;;22.35;31.14;102474.81;3092581;28;116119;-66
2021/01/10 01:20:41;;;;;;;;;;;;;;;22.34;31.17;102470.34;3092506;28;114596;-67
2021/01/10 01:22:12;;;;;;;;;;;;;;;22.33;31.06;102471.44;3099174;28;115881;-67
2021/01/10 01:23:44;;;;;;;;;;;;;;;22.31;31.24;102470.88;3094318;28;114130;-67
2021/01/10 01:25:15;;;;;;;;;;;;;;;22.30;31.46;102472.03;3099951;28;114194;-67
2021/01/10 01:26:47;;;;;;;;;;;;;;;22.31;31.36;102475.66;3094213;28;114455;-67
2021/01/10 01:28:18;;;;;;;;;;;;;;;22.28;31.15;102477.09;3096319;28;114694;-67
2021/01/10 01:29:49;;;;;;;;;;;;;;;22.26;30.94;102470.06;3097441;28;114663;-68
2021/01/10 01:31:21;;;;;;;;;;;;;;;22.24;30.94;102478.78;3097154;28;114327;-67
2021/01/10 01:32:53;;;;;;;;;;;;;;;22.23;31.11;102482.72;3094069;28;114369;-66
2021/01/10 01:34:25;;;;;;;;;;;;;;;22.25;30.91;102490.91;3095901;28;114149;-67
2021/01/10 01:35:56;;;;;;;;;;;;;;;22.20;31.35;102477.66;3092885;28;114315;-66
2021/01/10 01:37:27;;;;;;;;;;;;;;;22.18;31.10;102480.75;3095676;28;114330;-66
2021/01/10 01:38:59;;;;;;;;;;;;;;;22.17;31.40;102481.03;3094200;28;114503;-66
2021/01/10 01:40:31;;;;;;;;;;;;;;;22.18;31.53;102480.75;3099437;28;114156;-70
2021/01/10 01:42:02;;;;;;;;;;;;;;;22.16;31.46;102483.03;3091630;28;114819;-70
2021/01/10 01:43:34;;;;;;;;;;;;;;;22.14;31.77;102478.78;3096567;28;114408;-70
2021/01/10 01:45:07;;;;;;;;;;;;;;;22.12;31.39;102475.44;3096372;28;114221;-70
2021/01/10 01:46:38;;;;;;;;;;;;;;;22.11;31.27;102474.56;3091588;28;114250;-69
2021/01/10 01:48:10;;;;;;;;;;;;;;;22.09;31.74;102473.16;3097908;28;115123;-68
2021/01/10 01:49:42;;;;;;;;;;;;;;;22.07;31.89;102473.47;3096213;28;115518;-70
2021/01/10 01:51:13;;;;;;;;;;;;;;;22.06;31.47;102468.94;3091032;28;114372;-69
2021/01/10 01:52:44;;;;;;;;;;;;;;;22.04;31.66;102468.38;3095103;28;114610;-68
2021/01/10 01:54:16;;;;;;;;;;;;;;;22.04;31.50;102467.53;3092799;28;115206;-69
2021/01/10 01:55:51;;;;;;;;;;;;;;;22.00;31.54;102467.25;3089633;28;115233;-69
2021/01/10 01:57:22;;;;;;;;;;;;;;;21.99;31.37;102475.97;3091951;28;113991;-68
2021/01/10 01:58:57;;;;;;;;;;;;;;;21.96;31.73;102463.31;3096814;28;114477;-68
2021/01/10 02:00:29;;;;;;;;;;;;;;;21.94;31.75;102470.38;3098177;28;114498;-68
2021/01/10 02:02:00;;;;;;;;;;;;;;;21.93;31.90;102465.84;3093404;28;114352;-68
2021/01/10 02:03:39;;;;;;;;;;;;;;;21.91;31.77;102465.25;3097811;28;114572;-69
2021/01/10 02:05:13;;;;;;;;;;;;;;;21.88;31.76;102460.19;3098895;28;114259;-68
2021/01/10 02:07:05;;;;;;;;;;;;;;;21.84;32.15;102461.88;3089061;28;117472;-69
2021/01/10 02:08:38;;;;;;;;;;;;;;;21.81;32.01;102460.44;3090694;28;115618;-69
2021/01/10 02:10:13;;;;;;;;;;;;;;;21.79;32.10;102464.69;3091198;28;115013;-69
2021/01/10 02:11:47;;;;;;;;;;;;;;;21.76;32.30;102468.06;3095192;28;114748;-69
2021/01/10 02:13:20;;;;;;;;;;;;;;;21.73;32.14;102470.31;3093323;28;114359;-69
2021/01/10 02:14:56;;;;;;;;;;;;;;;21.69;32.38;102460.72;3094872;28;116596;-69
2021/01/10 02:16:27;;;;;;;;;;;;;;;21.67;32.21;102465.78;3096374;28;116041;-60
2021/01/10 02:18:00;;;;;;;;;;;;;;;21.66;31.92;102457.63;3097956;28;116308;-60
2021/01/10 02:19:37;;;;;;;;;;;;;;;21.62;32.00;102454.53;3091952;28;116096;-60
2021/01/10 02:21:09;;;;;;;;;;;;;;;21.60;32.13;102461.56;3090369;28;115992;-59
2021/01/10 02:22:51;;;;;;;;;;;;;;;21.59;31.87;102460.72;3095282;28;115832;-60
2021/01/10 02:24:23;;;;;;;;;;;;;;;21.55;32.10;102458.72;3092509;28;114858;-60
2021/01/10 02:25:54;;;;;;;;;;;;;;;21.52;32.06;102451.72;3096027;28;115887;-60
2021/01/10 02:27:25;;;;;;;;;;;;;;;21.51;32.13;102452.81;3096387;28;115158;-59
2021/01/10 02:28:57;;;;;;;;;;;;;;;21.48;32.46;102461.84;3092693;28;114561;-59
2021/01/10 02:30:30;;;;;;;;;;;;;;;21.48;32.23;102461.00;3095698;28;114204;-61
2021/01/10 02:32:04;;;;;;;;;;;;;;;21.44;32.42;102460.69;3093190;28;114235;-58
2021/01/10 02:33:39;;;;;;;;;;;;;;;21.42;32.34;102459.28;3093966;28;114277;-58
2021/01/10 02:35:10;;;;;;;;;;;;;;;21.41;32.36;102455.63;3091331;28;114400;-58
2021/01/10 02:36:55;;;;;;;;;;;;;;;21.38;32.64;102452.53;3094332;28;114723;-59
2021/01/10 02:38:44;;;;;;;;;;;;;;;21.35;32.44;102442.66;3100436;28;114193;-58
2021/01/10 02:40:26;;;;;;;;;;;;;;;21.33;32.73;102442.09;3091046;28;114188;-59
2021/01/10 02:42:21;;;;;;;;;;;;;;;21.29;32.59;102449.41;3093197;28;114244;-59
2021/01/10 02:44:01;;;;;;;;;;;;;;;21.26;32.57;102447.97;3092269;28;115734;-58
2021/01/10 02:45:34;;;;;;;;;;;;;;;21.23;32.42;102448.53;3102350;28;114453;-58
2021/01/10 02:47:06;;;;;;;;;;;;;;;21.21;32.66;102447.97;3093427;27;113982;-58
2021/01/10 02:48:37;;;;;;;;;;;;;;;21.18;32.44;102440.09;3093073;28;113945;-58
2021/01/10 02:50:19;;;;;;;;;;;;;;;21.18;32.68;102431.66;3090479;28;114094;-58
2021/01/10 02:51:50;;;;;;;;;;;;;;;21.15;32.65;102426.59;3098043;28;114269;-58
2021/01/10 02:53:22;;;;;;;;;;;;;;;21.14;32.91;102432.50;3096318;28;114237;-59
2021/01/10 02:54:53;;;;;;;;;;;;;;;21.12;32.52;102437.53;3096361;28;114058;-59
2021/01/10 02:56:24;;;;;;;;;;;;;;;21.08;32.63;102439.16;3093580;28;114510;-59
2021/01/10 02:57:59;;;;;;;;;;;;;;;21.06;32.42;102441.44;3090058;28;114554;-58
2021/01/10 02:59:31;;;;;;;;;;;;;;;21.03;32.48;102434.38;3088571;28;115346;-58
2021/01/10 03:01:04;;;;;;;;;;;;;;;21.04;32.46;102438.88;3091744;28;115278;-59
2021/01/10 03:02:36;;;;;;;;;;;;;;;21.00;32.42;102434.94;3086240;28;114678;-59
2021/01/10 03:04:14;;;;;;;;;;;;;;;20.98;32.54;102433.53;3093384;28;114994;-59
2021/01/10 03:05:46;;;;;;;;;;;;;;;20.95;32.75;102432.09;3088563;28;115089;-59
2021/01/10 03:07:17;;;;;;;;;;;;;;;20.96;32.86;102427.34;3091360;28;115340;-59
2021/01/10 03:08:58;;;;;;;;;;;;;;;20.93;32.90;102423.13;3097287;28;114937;-58
2021/01/10 03:10:30;;;;;;;;;;;;;;;20.92;32.66;102412.16;3090318;28;114858;-58
2021/01/10 03:12:19;;;;;;;;;;;;;;;20.88;32.38;102416.63;3092158;28;114576;-59
2021/01/10 03:13:51;;;;;;;;;;;;;;;20.85;32.71;102421.66;3094317;28;114266;-58
2021/01/10 03:15:22;;;;;;;;;;;;;;;20.82;32.81;102418.56;3106131;28;115839;-58
2021/01/10 03:16:53;;;;;;;;;;;;;;;20.84;33.01;102419.16;3091574;28;115860;-60
2021/01/10 03:18:24;;;;;;;;;;;;;;;20.82;32.98;102412.97;3094475;28;115784;-58
2021/01/10 03:19:56;;;;;;;;;;;;;;;20.81;33.04;102416.88;3095661;28;115484;-57
2021/01/10 03:21:27;;;;;;;;;;;;;;;20.77;33.05;102416.59;3095286;28;117445;-57
2021/01/10 03:22:58;;;;;;;;;;;;;;;20.76;33.14;102417.69;3095086;28;114832;-57
2021/01/10 03:24:29;;;;;;;;;;;;;;;20.74;33.07;102419.09;3089858;28;116040;-57
2021/01/10 03:26:00;;;;;;;;;;;;;;;20.72;33.24;102410.94;3091528;28;114683;-57
2021/01/10 03:27:33;;;;;;;;;;;;;;;20.70;33.17;102420.78;3089142;28;114656;-57
2021/01/10 03:29:06;;;;;;;;;;;;;;;20.69;33.16;102427.50;3094558;28;118172;-58
2021/01/10 03:30:37;;;;;;;;;;;;;;;20.68;33.04;102426.66;3089382;28;115990;-58
2021/01/10 03:32:09;;;;;;;;;;;;;;;20.66;33.14;102431.72;3095028;28;114864;-58
2021/01/10 03:33:45;;;;;;;;;;;;;;;20.65;33.11;102420.75;3095314;28;115017;-67
2021/01/10 03:35:17;;;;;;;;;;;;;;;20.62;33.06;102427.78;3101416;28;115247;-66
2021/01/10 03:36:48;;;;;;;;;;;;;;;20.60;33.03;102420.72;3090458;28;113958;-67
2021/01/10 03:38:20;;;;;;;;;;;;;;;20.57;32.89;102424.94;3091612;28;114068;-67
2021/01/10 03:39:51;;;;;;;;;;;;;;;20.54;33.32;102433.88;3092686;28;114381;-67
2021/01/10 03:41:23;;;;;;;;;;;;;;;20.53;33.26;102434.19;3093281;28;114123;-67
2021/01/10 03:42:54;;;;;;;;;;;;;;;20.50;33.27;102429.09;3091412;28;114391;-68
2021/01/10 03:44:26;;;;;;;;;;;;;;;20.48;33.46;102428.53;3093488;27;114065;-68
2021/01/10 03:45:57;;;;;;;;;;;;;;;20.45;33.36;102429.06;3091461;28;113836;-68
2021/01/10 03:47:28;;;;;;;;;;;;;;;20.45;33.16;102423.44;3089879;28;115467;-68
2021/01/10 03:49:00;;;;;;;;;;;;;;;20.42;33.24;102430.44;3092352;28;116958;-68
2021/01/10 03:50:31;;;;;;;;;;;;;;;20.40;33.49;102433.53;3085554;28;114609;-68
2021/01/10 03:52:02;;;;;;;;;;;;;;;20.37;33.27;102424.81;3093012;28;114746;-68
2021/01/10 03:53:35;;;;;;;;;;;;;;;20.36;33.17;102434.34;3091461;28;114336;-68
2021/01/10 03:55:08;;;;;;;;;;;;;;;20.35;33.55;102441.91;3094785;28;114225;-69
2021/01/10 03:56:39;;;;;;;;;;;;;;;20.34;33.26;102433.78;3097860;28;113905;-69
2021/01/10 03:58:10;;;;;;;;;;;;;;;20.34;33.27;102428.16;3093167;28;115410;-70
2021/01/10 03:59:42;;;;;;;;;;;;;;;20.31;33.41;102423.06;3098490;28;114322;-70
2021/01/10 04:01:13;;;;;;;;;;;;;;;20.26;33.34;102417.41;3094417;28;115994;-71
2021/01/10 04:02:44;;;;;;;;;;;;;;;20.27;33.53;102421.91;3099561;28;116785;-71
2021/01/10 04:04:15;;;;;;;;;;;;;;;20.22;33.40;102421.84;3100347;28;114100;-72
2021/01/10 04:05:46;;;;;;;;;;;;;;;20.23;33.45;102421.59;3098780;28;114065;-72
2021/01/10 04:07:18;;;;;;;;;;;;;;;20.22;33.42;102422.72;3095632;28;117215;-72
2021/01/10 04:08:50;;;;;;;;;;;;;;;20.20;33.55;102424.09;3095448;28;115388;-72
2021/01/10 04:10:21;;;;;;;;;;;;;;;20.18;33.49;102420.72;3092256;28;115262;-73
2021/01/10 04:11:52;;;;;;;;;;;;;;;20.17;33.35;102407.81;3096896;28;115350;-72
2021/01/10 04:13:24;;;;;;;;;;;;;;;20.14;33.53;102414.81;3090511;28;117366;-71
2021/01/10 04:14:57;;;;;;;;;;;;;;;20.13;33.40;102412.25;3099230;28;115491;-71
2021/01/10 04:16:29;;;;;;;;;;;;;;;20.14;33.28;102408.34;3094062;28;113826;-71
2021/01/10 04:18:01;;;;;;;;;;;;;;;20.10;33.41;102402.44;3101422;28;115317;-72
2021/01/10 04:19:32;;;;;;;;;;;;;;;20.08;33.39;102398.22;3094878;28;115979;-72
2021/01/10 04:21:04;;;;;;;;;;;;;;;20.07;33.37;102400.19;3087996;28;115820;-71
2021/01/10 04:22:35;;;;;;;;;;;;;;;20.07;33.65;102402.13;3098066;28;116619;-73
2021/01/10 04:24:06;;;;;;;;;;;;;;;20.07;33.25;102402.97;3100610;28;117830;-72
2021/01/10 04:25:37;;;;;;;;;;;;;;;20.05;33.47;102401.53;3095652;28;115786;-66
2021/01/10 04:27:08;;;;;;;;;;;;;;;20.03;33.32;102399.03;3088948;28;117463;-65
2021/01/10 04:28:40;;;;;;;;;;;;;;;20.01;33.52;102400.38;3091272;28;115411;-66
2021/01/10 04:30:11;;;;;;;;;;;;;;;19.99;33.42;102395.88;3097151;28;115364;-66
2021/01/10 04:31:42;;;;;;;;;;;;;;;19.99;33.78;102393.09;3095039;28;115927;-66
2021/01/10 04:33:14;;;;;;;;;;;;;;;19.98;33.51;102393.38;3091061;28;114617;-64
2021/01/10 04:34:45;;;;;;;;;;;;;;;19.96;33.66;102396.44;3103125;28;114636;-66
2021/01/10 04:36:32;;;;;;;;;;;;;;;19.94;33.44;102395.84;3110775;28;114585;-66
2021/01/10 04:38:10;;;;;;;;;;;;;;;19.92;33.53;102395.28;3086935;28;114963;-66
2021/01/10 04:39:42;;;;;;;;;;;;;;;19.92;33.56;102400.06;3097816;28;114739;-66
2021/01/10 04:41:15;;;;;;;;;;;;;;;19.92;33.56;102394.44;3089887;28;115033;-66
2021/01/10 04:42:47;;;;;;;;;;;;;;;19.89;33.71;102398.66;3098042;28;113989;-66
2021/01/10 04:44:18;;;;;;;;;;;;;;;19.87;33.39;102395.25;3089350;28;114164;-68
2021/01/10 04:45:50;;;;;;;;;;;;;;;19.86;33.50;102401.97;3094998;28;113936;-67
2021/01/10 04:47:21;;;;;;;;;;;;;;;19.84;33.63;102394.94;3096881;28;113927;-67
2021/01/10 04:48:53;;;;;;;;;;;;;;;19.79;33.53;102398.56;3091296;28;114111;-67
2021/01/10 04:50:25;;;;;;;;;;;;;;;19.82;33.63;102394.34;3098961;28;114329;-67
2021/01/10 04:51:57;;;;;;;;;;;;;;;19.79;33.75;102392.09;3093111;28;114500;-66
2021/01/10 04:53:30;;;;;;;;;;;;;;;19.78;33.68;102390.41;3097554;28;114138;-66
2021/01/10 04:55:02;;;;;;;;;;;;;;;19.78;33.55;102390.41;3089936;28;114079;-67
2021/01/10 04:56:34;;;;;;;;;;;;;;;19.77;33.65;102385.91;3084843;28;114405;-67
2021/01/10 04:58:06;;;;;;;;;;;;;;;19.75;33.55;102382.53;3099732;28;114393;-67
2021/01/10 04:59:39;;;;;;;;;;;;;;;19.73;33.60;102379.13;3098434;28;114098;-67
2021/01/10 05:01:13;;;;;;;;;;;;;;;19.71;33.51;102385.03;3095032;28;114634;-66
2021/01/10 05:02:53;;;;;;;;;;;;;;;19.70;33.49;102383.34;3103937;28;114122;-67
2021/01/10 05:04:26;;;;;;;;;;;;;;;19.71;33.49;102382.22;3095614;28;115297;-67
2021/01/10 05:05:57;;;;;;;;;;;;;;;19.71;33.51;102387.00;3097376;28;115403;-66
2021/01/10 05:07:30;;;;;;;;;;;;;;;19.70;33.29;102380.53;3099923;28;115356;-67
2021/01/10 05:09:03;;;;;;;;;;;;;;;19.70;33.23;102374.06;3097292;28;115756;-67
2021/01/10 05:10:35;;;;;;;;;;;;;;;19.65;33.60;102385.25;3100551;28;115183;-67
2021/01/10 05:12:06;;;;;;;;;;;;;;;19.65;33.40;102380.50;3098037;28;115318;-68
2021/01/10 05:13:37;;;;;;;;;;;;;;;19.63;33.47;102381.84;3103216;28;115409;-67
2021/01/10 05:15:09;;;;;;;;;;;;;;;19.62;33.35;102388.59;3102246;28;114503;-67
2021/01/10 05:16:41;;;;;;;;;;;;;;;19.59;33.52;102383.50;3099560;28;115483;-67
2021/01/10 05:18:13;;;;;;;;;;;;;;;19.56;33.35;102387.69;3098865;28;114417;-67
2021/01/10 05:19:45;;;;;;;;;;;;;;;19.58;33.36;102387.44;3099178;28;116139;-67
2021/01/10 05:21:19;;;;;;;;;;;;;;;19.51;33.61;102385.69;3096710;28;115277;-67
2021/01/10 05:22:50;;;;;;;;;;;;;;;19.53;33.41;102388.25;3099032;28;115359;-66
2021/01/10 05:24:22;;;;;;;;;;;;;;;19.50;33.59;102386.81;3102553;28;115271;-67
2021/01/10 05:26:06;;;;;;;;;;;;;;;19.49;33.45;102384.25;3098849;28;114740;-68
2021/01/10 05:27:37;;;;;;;;;;;;;;;19.44;33.49;102389.84;3088973;28;114397;-67
2021/01/10 05:29:09;;;;;;;;;;;;;;;19.44;33.54;102401.06;3096365;28;114767;-67
2021/01/10 05:30:40;;;;;;;;;;;;;;;19.45;33.50;102394.31;3100436;28;117639;-71
2021/01/10 05:32:12;;;;;;;;;;;;;;;19.42;33.67;102394.81;3091237;28;114865;-71
2021/01/10 05:33:48;;;;;;;;;;;;;;;19.43;33.57;102393.72;3088765;28;116485;-71
2021/01/10 05:35:20;;;;;;;;;;;;;;;19.41;33.43;102393.13;3097875;28;118020;-72
2021/01/10 05:36:51;;;;;;;;;;;;;;;19.40;33.65;102402.63;3091522;28;115894;-72
2021/01/10 05:38:32;;;;;;;;;;;;;;;19.39;33.72;102398.16;3089388;28;114631;-72
2021/01/10 05:40:06;;;;;;;;;;;;;;;19.36;33.67;102401.47;3087106;28;114851;-71
2021/01/10 05:41:38;;;;;;;;;;;;;;;19.35;33.53;102400.63;3093133;28;117397;-72
2021/01/10 05:43:10;;;;;;;;;;;;;;;19.32;33.59;102400.31;3101304;28;114932;-71
2021/01/10 05:44:42;;;;;;;;;;;;;;;19.30;33.55;102397.81;3108659;28;116038;-71
2021/01/10 05:46:16;;;;;;;;;;;;;;;19.30;33.55;102395.00;3091964;28;114818;-71
2021/01/10 05:47:48;;;;;;;;;;;;;;;19.28;33.55;102386.00;3091009;28;114006;-72
2021/01/10 05:49:20;;;;;;;;;;;;;;;19.28;33.56;102386.00;3099963;28;113859;-71
2021/01/10 05:50:52;;;;;;;;;;;;;;;19.27;33.51;102380.66;3088599;28;114014;-67
2021/01/10 05:52:25;;;;;;;;;;;;;;;19.26;33.60;102385.41;3098524;28;116554;-68
2021/01/10 05:53:56;;;;;;;;;;;;;;;19.23;33.64;102379.50;3102517;28;114036;-66
2021/01/10 05:55:28;;;;;;;;;;;;;;;19.22;33.60;102383.41;3093115;28;114496;-66
2021/01/10 05:57:00;;;;;;;;;;;;;;;19.22;33.73;102391.81;3086096;28;114274;-66
2021/01/10 05:58:31;;;;;;;;;;;;;;;19.20;33.70;102386.47;3092237;28;114250;-66
2021/01/10 06:00:04;;;;;;;;;;;;;;;19.16;33.70;102387.28;3100171;28;114113;-66
2021/01/10 06:01:37;;;;;;;;;;;;;;;19.16;33.80;102379.72;3101231;28;114119;-66
2021/01/10 06:03:09;;;;;;;;;;;;;;;19.16;33.72;102382.53;3101093;28;113860;-66
2021/01/10 06:04:41;;;;;;;;;;;;;;;19.14;33.71;102384.72;3101100;28;114108;-66
2021/01/10 06:06:12;;;;;;;;;;;;;;;19.09;33.96;102374.31;3097383;28;113985;-66
2021/01/10 06:07:43;;;;;;;;;;;;;;;19.14;33.73;102387.53;3100173;28;114496;-66
2021/01/10 06:09:15;;;;;;;;;;;;;;;19.12;33.99;102377.72;3098006;28;115520;-66
2021/01/10 06:10:46;;;;;;;;;;;;;;;19.10;34.08;102372.34;3094471;28;113965;-64
2021/01/10 06:12:23;;;;;;;;;;;;;;;19.12;34.35;102374.91;3090925;28;116091;-67
2021/01/10 06:13:58;;;;;;;;;;;;;;;19.13;34.33;102371.81;3091165;28;114616;-67
2021/01/10 06:15:36;;;;;;;;;;;;;;;19.16;34.68;102371.31;3099362;28;115006;-67
2021/01/10 06:17:08;;;;;;;;;;;;;;;19.19;34.61;102373.56;3096021;28;115662;-66
2021/01/10 06:18:43;;;;;;;;;;;;;;;19.23;34.58;102371.09;3098092;28;115044;-66
2021/01/10 06:20:17;;;;;;;;;;;;;;;19.24;34.45;102379.22;3091165;28;114852;-70
2021/01/10 06:21:48;;;;;;;;;;;;;;;19.28;34.68;102383.19;3089303;28;114734;-69
2021/01/10 06:23:26;;;;;;;;;;;;;;;19.33;34.66;102382.41;3100844;28;116095;-70
2021/01/10 06:24:58;;;;;;;;;;;;;;;19.36;34.87;102387.47;3092500;28;114412;-68
2021/01/10 06:26:30;;;;;;;;;;;;;;;19.39;34.84;102381.34;3101797;28;114919;-68
2021/01/10 06:28:02;;;;;;;;;;;;;;;19.44;35.12;102381.44;3096818;28;115159;-68
2021/01/10 06:29:38;;;;;;;;;;;;;;;19.47;34.94;102378.09;3092746;28;114516;-69
2021/01/10 06:31:11;;;;;;;;;;;;;;;19.53;34.85;102379.84;3091124;28;114214;-69
2021/01/10 06:32:44;;;;;;;;;;;;;;;19.58;34.93;102376.22;3087738;28;115469;-67
2021/01/10 06:34:19;;;;;;;;;;;;;;;19.62;34.62;102380.19;3087384;28;115138;-67
2021/01/10 06:35:51;;;;;;;;;;;;;;;19.66;34.80;102382.19;3101273;28;115635;-69
2021/01/10 06:37:23;;;;;;;;;;;;;;;19.72;34.47;102383.03;3106560;28;116358;-67
2021/01/10 06:39:03;;;;;;;;;;;;;;;19.76;34.24;102392.66;3092956;28;115583;-67
2021/01/10 06:40:36;;;;;;;;;;;;;;;19.80;34.33;102397.44;3092008;28;114326;-67
2021/01/10 06:42:08;;;;;;;;;;;;;;;19.85;34.21;102394.66;3093499;28;114931;-67
2021/01/10 06:43:42;;;;;;;;;;;;;;;19.88;33.95;102388.53;3093731;28;114727;-67
2021/01/10 06:45:14;;;;;;;;;;;;;;;19.92;34.05;102383.22;3094497;28;114934;-67
2021/01/10 06:46:50;;;;;;;;;;;;;;;19.96;33.85;102393.63;3091739;28;115764;-67
2021/01/10 06:48:24;;;;;;;;;;;;;;;20.02;33.94;102393.69;3095336;28;115843;-67
2021/01/10 06:49:55;;;;;;;;;;;;;;;20.05;33.68;102399.59;3091673;28;114507;-69
2021/01/10 06:51:28;;;;;;;;;;;;;;;20.10;34.12;102391.19;3096453;28;114622;-66
2021/01/10 06:53:07;;;;;;;;;;;;;;;20.14;33.96;102394.31;3103415;28;114921;-67
2021/01/10 06:54:44;;;;;;;;;;;;;;;20.16;33.76;102378.06;3099541;28;114118;-66
2021/01/10 06:56:15;;;;;;;;;;;;;;;20.21;33.75;102386.50;3099345;28;114320;-65
2021/01/10 06:57:46;;;;;;;;;;;;;;;20.25;33.53;102382.03;3095758;28;113969;-66
2021/01/10 06:59:18;;;;;;;;;;;;;;;20.27;33.52;102385.41;3091951;28;114152;-67
2021/01/10 07:00:53;;;;;;;;;;;;;;;20.30;33.25;102380.16;3096742;28;113884;-66
2021/01/10 07:02:25;;;;;;;;;;;;;;;20.34;33.46;102374.84;3093197;28;114201;-66
2021/01/10 07:03:57;;;;;;;;;;;;;;;20.37;33.25;102380.75;3091808;28;113871;-67
2021/01/10 07:05:48;;;;;;;;;;;;;;;20.41;33.44;102375.41;3097632;28;114729;-67
2021/01/10 07:07:30;;;;;;;;;;;;;;;20.44;33.18;102374.88;3099764;28;114571;-67
2021/01/10 07:09:01;;;;;;;;;;;;;;;20.48;33.15;102375.19;3096861;28;114282;-67
2021/01/10 07:10:32;;;;;;;;;;;;;;;20.50;33.33;102370.97;3088311;28;114126;-67
2021/01/10 07:12:19;;;;;;;;;;;;;;;20.53;33.19;102363.97;3098863;28;114880;-71
2021/01/10 07:13:51;;;;;;;;;;;;;;;20.58;33.45;102372.44;3107190;28;114175;-69
2021/01/10 07:15:22;;;;;;;;;;;;;;;20.59;33.28;102372.13;3086659;28;114379;-68
2021/01/10 07:17:09;;;;;;;;;;;;;;;20.64;33.35;102374.13;3097165;28;115320;-68
2021/01/10 07:18:48;;;;;;;;;;;;;;;20.67;33.23;102374.41;3097816;28;114435;-69
2021/01/10 07:20:39;;;;;;;;;;;;;;;20.72;32.99;102379.19;3099000;28;114268;-69
2021/01/10 07:22:27;;;;;;;;;;;;;;;20.74;33.04;102372.22;3086523;28;115126;-68
2021/01/10 07:24:14;;;;;;;;;;;;;;;20.77;33.01;102377.25;3097636;28;114044;-69
2021/01/10 07:25:45;;;;;;;;;;;;;;;20.81;32.96;102380.34;3108704;28;115957;-69
2021/01/10 07:27:30;;;;;;;;;;;;;;;20.84;32.75;102382.63;3100045;28;117113;-69
2021/01/10 07:29:01;;;;;;;;;;;;;;;20.86;32.74;102381.22;3106700;27;115808;-69
2021/01/10 07:30:32;;;;;;;;;;;;;;;20.91;32.81;102373.94;3102120;28;115543;-69
2021/01/10 07:32:07;;;;;;;;;;;;;;;20.93;32.83;102372.56;3090709;28;117252;-69
2021/01/10 07:33:39;;;;;;;;;;;;;;;20.96;32.66;102372.00;3092119;28;115263;-69
2021/01/10 07:35:10;;;;;;;;;;;;;;;21.00;32.50;102380.69;3090542;28;114299;-69
2021/01/10 07:36:45;;;;;;;;;;;;;;;21.02;32.47;102370.03;3089271;28;115414;-69
2021/01/10 07:38:19;;;;;;;;;;;;;;;21.04;32.45;102373.41;3095033;28;114368;-69
2021/01/10 07:39:57;;;;;;;;;;;;;;;21.07;32.37;102372.88;3087423;28;115054;-70
2021/01/10 07:41:28;;;;;;;;;;;;;;;21.10;32.39;102377.94;3094962;28;116052;-69
2021/01/10 07:43:01;;;;;;;;;;;;;;;21.12;32.44;102368.06;3098859;28;115809;-70
2021/01/10 07:44:52;;;;;;;;;;;;;;;21.14;32.68;102371.50;3090191;28;115023;-69
2021/01/10 07:46:41;;;;;;;;;;;;;;;21.16;32.35;102365.63;3095500;28;114547;-69
2021/01/10 07:48:25;;;;;;;;;;;;;;;21.19;32.27;102373.47;3099073;28;117276;-69
2021/01/10 07:49:57;;;;;;;;;;;;;;;21.22;32.17;102370.09;3098049;28;115768;-68
2021/01/10 07:51:28;;;;;;;;;;;;;;;21.23;32.36;102369.84;3097602;28;115712;-68
2021/01/10 07:53:00;;;;;;;;;;;;;;;21.26;32.31;102382.47;3099056;28;116293;-69
2021/01/10 07:54:50;;;;;;;;;;;;;;;21.28;32.62;102372.66;3097567;28;114681;-68